createdAt,value
2017-11-04T00:00:19.750Z,4.43
2017-11-04T00:01:19.765Z,4.46
2017-11-04T00:03:14.167Z,4.37
2017-11-04T00:04:14.104Z,4.39
2017-11-04T00:06:07.573Z,4.32
2017-11-04T00:07:07.559Z,4.29
2017-11-04T00:09:00.919Z,4.21
2017-11-04T00:10:00.920Z,4.14
2017-11-04T00:11:54.290Z,4.12
2017-11-04T00:12:54.712Z,4.06
2017-11-04T00:14:47.795Z,4.06
2017-11-04T00:15:47.739Z,3.97
2017-11-04T00:17:41.145Z,3.96
2017-11-04T00:18:41.143Z,3.94
2017-11-04T00:20:34.524Z,3.97
2017-11-04T00:21:34.482Z,4.00
2017-11-04T00:23:27.923Z,4.07
2017-11-04T00:24:27.894Z,4.16
2017-11-04T00:26:21.370Z,4.19
2017-11-04T00:27:21.345Z,4.16
2017-11-04T00:29:15.734Z,4.32
2017-11-04T00:30:15.726Z,4.37
2017-11-04T00:32:09.072Z,4.54
2017-11-04T00:33:09.100Z,4.57
2017-11-04T00:35:02.512Z,4.55
2017-11-04T00:36:02.547Z,4.70
2017-11-04T00:37:56.947Z,4.57
2017-11-04T00:38:56.901Z,4.54
2017-11-04T00:40:50.270Z,4.67
2017-11-04T00:41:50.356Z,4.61
2017-11-04T00:43:44.784Z,4.54
2017-11-04T00:44:44.750Z,4.61
2017-11-04T00:46:38.065Z,4.43
2017-11-04T00:47:38.107Z,4.37
2017-11-04T00:49:32.551Z,4.39
2017-11-04T00:50:32.509Z,4.33
2017-11-04T00:52:25.950Z,4.28
2017-11-04T00:53:25.905Z,4.26
2017-11-04T00:55:19.338Z,4.39
2017-11-04T00:56:19.362Z,4.37
2017-11-04T00:58:12.737Z,4.44
2017-11-04T00:59:12.719Z,4.52
2017-11-04T01:01:07.094Z,4.62
2017-11-04T01:02:07.102Z,4.57
2017-11-04T01:04:01.576Z,4.62
2017-11-04T01:05:01.567Z,4.62
2017-11-04T01:06:54.897Z,4.79
2017-11-04T01:07:54.921Z,4.69
2017-11-04T01:09:48.353Z,4.77
2017-11-04T01:10:48.274Z,4.83
2017-11-04T01:12:42.665Z,4.76
2017-11-04T01:13:42.690Z,4.73
2017-11-04T01:15:36.079Z,4.69
2017-11-04T01:16:36.077Z,4.65
2017-11-04T01:18:29.451Z,4.62
2017-11-04T01:19:29.514Z,4.67
2017-11-04T01:21:23.922Z,4.69
2017-11-04T01:22:23.891Z,4.69
2017-11-04T01:24:17.276Z,4.72
2017-11-04T01:25:17.296Z,4.76
2017-11-04T01:27:10.666Z,4.86
2017-11-04T01:28:10.697Z,4.86
2017-11-04T01:30:04.050Z,4.84
2017-11-04T01:31:04.120Z,4.86
2017-11-04T01:32:58.473Z,4.86
2017-11-04T01:33:58.510Z,4.84
2017-11-04T01:35:52.853Z,4.86
2017-11-04T01:36:52.881Z,4.75
2017-11-04T01:38:46.268Z,4.75
2017-11-04T01:39:46.250Z,4.65
2017-11-04T01:41:39.692Z,4.65
2017-11-04T01:42:39.658Z,4.62
2017-11-04T01:44:34.010Z,4.77
2017-11-04T01:45:34.072Z,4.73
2017-11-04T01:47:28.422Z,4.72
2017-11-04T01:48:28.496Z,4.75
2017-11-04T01:50:21.819Z,4.80
2017-11-04T01:51:21.777Z,4.83
2017-11-04T01:53:15.206Z,4.84
2017-11-04T01:54:15.180Z,4.92
2017-11-04T01:56:08.614Z,5.09
2017-11-04T01:57:08.608Z,5.05
2017-11-04T01:59:02.043Z,5.07
2017-11-04T02:00:02.043Z,5.04
2017-11-04T02:01:55.378Z,5.09
2017-11-04T02:02:55.383Z,5.12
2017-11-04T02:04:51.300Z,4.98
2017-11-04T02:05:51.239Z,4.99
2017-11-04T02:07:44.716Z,4.98
2017-11-04T02:08:44.695Z,5.01
2017-11-04T02:10:38.116Z,4.94
2017-11-04T02:11:38.103Z,4.99
2017-11-04T02:13:32.497Z,5.01
2017-11-04T02:14:32.563Z,4.99
2017-11-04T02:16:25.945Z,4.99
2017-11-04T02:17:25.923Z,4.92
2017-11-04T02:19:20.340Z,4.99
2017-11-04T02:20:20.356Z,4.98
2017-11-04T02:22:13.853Z,4.99
2017-11-04T02:23:13.759Z,4.99
2017-11-04T02:25:07.217Z,5.04
2017-11-04T02:26:07.189Z,4.98
2017-11-04T02:28:00.565Z,5.01
2017-11-04T02:29:00.552Z,4.92
2017-11-04T02:30:53.977Z,4.89
2017-11-04T02:31:53.935Z,4.84
2017-11-04T02:33:47.413Z,4.76
2017-11-04T02:34:54.977Z,4.80
2017-11-04T02:36:41.683Z,4.86
2017-11-04T02:37:41.776Z,4.94
2017-11-04T02:39:36.080Z,4.99
2017-11-04T02:40:36.098Z,5.05
2017-11-04T02:42:29.466Z,5.04
2017-11-04T02:43:29.487Z,5.07
2017-11-04T02:45:22.901Z,5.17
2017-11-04T02:46:22.898Z,5.14
2017-11-04T02:48:16.251Z,5.12
2017-11-04T02:49:16.306Z,5.09
2017-11-04T02:51:10.578Z,5.14
2017-11-04T02:52:10.451Z,5.14
2017-11-04T02:54:04.818Z,5.13
2017-11-04T02:55:04.875Z,5.12
2017-11-04T02:56:58.268Z,4.96
2017-11-04T02:57:58.229Z,5.01
2017-11-04T02:59:51.664Z,4.95
2017-11-04T03:00:51.630Z,5.02
2017-11-04T03:02:46.021Z,5.02
2017-11-04T03:03:46.000Z,5.01
2017-11-04T03:05:39.432Z,5.05
2017-11-04T03:06:39.449Z,4.99
2017-11-04T03:08:33.805Z,4.89
2017-11-04T03:09:33.861Z,4.89
2017-11-04T03:11:27.209Z,4.99
2017-11-04T03:12:27.217Z,4.99
2017-11-04T03:14:20.566Z,5.02
2017-11-04T03:15:20.592Z,4.98
2017-11-04T03:17:14.932Z,4.98
2017-11-04T03:18:14.998Z,4.91
2017-11-04T03:20:09.413Z,4.80
2017-11-04T03:21:09.414Z,4.88
2017-11-04T03:23:02.738Z,4.95
2017-11-04T03:24:02.759Z,4.99
2017-11-04T03:25:56.173Z,5.07
2017-11-04T03:26:56.238Z,5.09
2017-11-04T03:28:49.627Z,5.13
2017-11-04T03:29:49.628Z,5.10
2017-11-04T03:31:43.059Z,5.07
2017-11-04T03:32:42.957Z,5.12
2017-11-04T03:34:36.429Z,4.95
2017-11-04T03:35:36.364Z,5.01
2017-11-04T03:37:29.766Z,4.94
2017-11-04T03:38:29.775Z,4.98
2017-11-04T03:40:23.130Z,5.02
2017-11-04T03:41:23.082Z,4.94
2017-11-04T03:43:17.557Z,4.88
2017-11-04T03:44:17.596Z,4.88
2017-11-04T03:46:11.938Z,4.79
2017-11-04T03:47:11.957Z,4.77
2017-11-04T03:49:06.353Z,4.84
2017-11-04T03:50:06.340Z,5.01
2017-11-04T03:51:59.794Z,4.89
2017-11-04T03:52:59.791Z,4.96
2017-11-04T03:54:53.172Z,4.84
2017-11-04T03:55:53.117Z,4.88
2017-11-04T03:57:46.615Z,4.92
2017-11-04T03:58:46.546Z,4.91
2017-11-04T04:00:39.901Z,4.92
2017-11-04T04:01:39.935Z,4.84
2017-11-04T04:03:33.362Z,4.80
2017-11-04T04:04:33.348Z,4.91
2017-11-04T04:06:26.762Z,4.84
2017-11-04T04:07:26.768Z,4.86
2017-11-04T04:09:20.148Z,5.04
2017-11-04T04:10:20.139Z,5.01
2017-11-04T04:12:13.562Z,5.05
2017-11-04T04:13:13.593Z,5.13
2017-11-04T04:15:07.019Z,4.99
2017-11-04T04:16:07.011Z,5.01
2017-11-04T04:18:02.382Z,5.22
2017-11-04T04:19:02.410Z,5.14
2017-11-04T04:20:55.781Z,5.23
2017-11-04T04:21:55.751Z,5.13
2017-11-04T04:23:49.210Z,5.19
2017-11-04T04:24:49.326Z,5.16
2017-11-04T04:26:42.673Z,5.14
2017-11-04T04:27:42.682Z,5.19
2017-11-04T04:29:39.264Z,5.23
2017-11-04T04:32:33.627Z,5.20
2017-11-04T04:33:33.626Z,5.17
2017-11-04T04:35:27.015Z,5.19
2017-11-04T04:36:27.060Z,5.20
2017-11-04T04:38:21.498Z,5.22
2017-11-04T04:39:21.433Z,5.23
2017-11-04T04:41:14.795Z,5.28
2017-11-04T04:42:14.828Z,5.30
2017-11-04T04:44:08.241Z,5.28
2017-11-04T04:45:08.201Z,5.30
2017-11-04T04:47:02.627Z,5.31
2017-11-04T04:48:02.619Z,5.28
2017-11-04T04:49:57.059Z,5.34
2017-11-04T04:50:57.084Z,5.27
2017-11-04T04:52:50.412Z,5.38
2017-11-04T04:53:50.430Z,5.31
2017-11-04T04:55:45.817Z,5.30
2017-11-04T04:56:45.805Z,5.27
2017-11-04T04:58:39.224Z,5.43
2017-11-04T04:59:39.179Z,5.43
2017-11-04T05:01:32.641Z,5.38
2017-11-04T05:02:32.595Z,5.37
2017-11-04T05:04:25.954Z,5.43
2017-11-04T05:05:25.970Z,5.43
2017-11-04T05:07:20.391Z,5.48
2017-11-04T05:08:20.400Z,5.37
2017-11-04T05:10:13.755Z,5.38
2017-11-04T05:11:13.740Z,5.43
2017-11-04T05:13:07.137Z,5.41
2017-11-04T05:14:07.144Z,5.52
2017-11-04T05:16:00.574Z,5.53
2017-11-04T05:17:00.528Z,5.59
2017-11-04T05:18:53.941Z,5.37
2017-11-04T05:19:53.977Z,5.45
2017-11-04T05:21:47.403Z,5.38
2017-11-04T05:22:47.335Z,5.35
2017-11-04T05:24:40.797Z,5.41
2017-11-04T05:25:40.719Z,5.41
2017-11-04T05:27:34.144Z,5.38
2017-11-04T05:28:34.101Z,5.40
2017-11-04T05:30:27.461Z,5.41
2017-11-04T05:31:27.490Z,5.40
2017-11-04T05:33:20.853Z,5.40
2017-11-04T05:34:20.917Z,5.37
2017-11-04T05:36:14.300Z,5.41
2017-11-04T05:37:14.300Z,5.34
2017-11-04T05:39:07.674Z,5.40
2017-11-04T05:40:07.703Z,5.38
2017-11-04T05:42:01.107Z,5.32
2017-11-04T05:43:01.137Z,5.37
2017-11-04T05:44:54.446Z,5.43
2017-11-04T05:45:54.504Z,5.37
2017-11-04T05:47:47.884Z,5.37
2017-11-04T05:48:47.926Z,5.35
2017-11-04T05:50:42.279Z,5.49
2017-11-04T05:51:42.246Z,5.37
2017-11-04T05:53:35.684Z,5.37
2017-11-04T05:54:35.691Z,5.40
2017-11-04T05:56:29.037Z,5.41
2017-11-04T05:57:29.085Z,5.38
2017-11-04T05:59:22.457Z,5.35
2017-11-04T06:00:22.463Z,5.41
2017-11-04T06:02:15.825Z,5.38
2017-11-04T06:03:16.215Z,5.40
2017-11-04T06:05:09.263Z,5.40
2017-11-04T06:06:09.379Z,5.38
2017-11-04T06:08:03.630Z,5.37
2017-11-04T06:09:03.611Z,5.38
2017-11-04T06:10:57.052Z,5.48
2017-11-04T06:11:57.030Z,5.45
2017-11-04T06:13:51.390Z,5.52
2017-11-04T06:14:51.412Z,5.60
2017-11-04T06:16:45.164Z,5.59
2017-11-04T06:17:44.881Z,5.56
2017-11-04T06:19:38.188Z,5.63
2017-11-04T06:20:38.206Z,5.67
2017-11-04T06:22:32.602Z,5.66
2017-11-04T06:23:32.600Z,5.67
2017-11-04T06:25:25.982Z,5.64
2017-11-04T06:26:25.972Z,5.56
2017-11-04T06:28:19.414Z,5.60
2017-11-04T06:29:19.375Z,5.68
2017-11-04T06:31:12.808Z,5.73
2017-11-04T06:32:12.824Z,5.68
2017-11-04T06:34:06.227Z,5.64
2017-11-04T06:35:06.222Z,5.68
2017-11-04T06:36:59.607Z,5.73
2017-11-04T06:37:59.573Z,5.70
2017-11-04T06:39:52.990Z,5.59
2017-11-04T06:41:00.588Z,5.63
2017-11-04T06:42:47.387Z,5.68
2017-11-04T06:43:47.400Z,5.67
2017-11-04T06:45:40.761Z,5.70
2017-11-04T06:46:40.747Z,5.70
2017-11-04T06:48:34.187Z,5.78
2017-11-04T06:49:34.192Z,5.74
2017-11-04T06:51:27.567Z,5.85
2017-11-04T06:52:27.597Z,5.74
2017-11-04T06:54:21.001Z,5.75
2017-11-04T06:55:21.003Z,5.81
2017-11-04T06:57:14.342Z,5.68
2017-11-04T06:58:14.386Z,5.78
2017-11-04T07:00:07.792Z,5.73
2017-11-04T07:01:07.727Z,5.75
2017-11-04T07:03:01.207Z,5.74
2017-11-04T07:04:01.150Z,5.73
2017-11-04T07:05:54.541Z,5.68
2017-11-04T07:06:54.568Z,5.74
2017-11-04T07:08:47.967Z,5.86
2017-11-04T07:09:47.915Z,5.93
2017-11-04T07:11:42.362Z,5.95
2017-11-04T07:12:42.300Z,5.89
2017-11-04T07:14:35.733Z,5.92
2017-11-04T07:15:35.710Z,5.96
2017-11-04T07:17:29.138Z,5.93
2017-11-04T07:18:29.110Z,6.00
2017-11-04T07:20:22.544Z,6.11
2017-11-04T07:21:22.446Z,6.19
2017-11-04T07:23:15.896Z,6.21
2017-11-04T07:24:15.935Z,6.30
2017-11-04T07:26:09.281Z,6.30
2017-11-04T07:27:09.296Z,6.29
2017-11-04T07:29:02.681Z,6.36
2017-11-04T07:30:02.714Z,6.38
2017-11-04T07:31:56.083Z,6.48
2017-11-04T07:32:56.127Z,6.46
2017-11-04T07:34:49.516Z,6.54
2017-11-04T07:35:49.453Z,6.54
2017-11-04T07:37:42.894Z,6.50
2017-11-04T07:38:42.931Z,6.48
2017-11-04T07:40:36.350Z,6.51
2017-11-04T07:41:36.340Z,6.51
2017-11-04T07:43:29.744Z,6.53
2017-11-04T07:44:29.764Z,6.58
2017-11-04T07:46:23.154Z,6.72
2017-11-04T07:47:23.124Z,6.91
2017-11-04T07:49:16.571Z,6.86
2017-11-04T07:50:16.561Z,6.95
2017-11-04T07:52:09.901Z,7.17
2017-11-04T07:53:09.906Z,7.17
2017-11-04T07:55:04.274Z,7.24
2017-11-04T07:56:04.343Z,7.40
2017-11-04T07:57:57.666Z,7.47
2017-11-04T07:58:57.688Z,7.53
2017-11-04T08:00:51.115Z,7.72
2017-11-04T08:01:51.110Z,7.77
2017-11-04T08:03:45.524Z,7.87
2017-11-04T08:04:45.495Z,7.90
2017-11-04T08:06:38.879Z,8.00
2017-11-04T08:07:39.001Z,8.15
2017-11-04T08:09:32.287Z,8.04
2017-11-04T08:10:32.307Z,8.04
2017-11-04T08:12:25.706Z,8.25
2017-11-04T08:13:25.678Z,8.25
2017-11-04T08:15:19.014Z,8.44
2017-11-04T08:16:26.694Z,8.35
2017-11-04T08:18:12.537Z,8.54
2017-11-04T08:19:12.530Z,8.65
2017-11-04T08:21:05.947Z,8.69
2017-11-04T08:22:05.889Z,8.75
2017-11-04T08:23:59.257Z,8.78
2017-11-04T08:24:59.273Z,8.83
2017-11-04T08:26:52.711Z,8.91
2017-11-04T08:27:52.667Z,8.86
2017-11-04T08:29:55.945Z,8.97
2017-11-04T08:30:56.778Z,9.20
2017-11-04T08:32:50.212Z,9.23
2017-11-04T08:33:42.568Z,9.28
2017-11-04T08:35:36.986Z,9.45
2017-11-04T08:36:45.501Z,9.43
2017-11-04T08:38:30.608Z,9.39
2017-11-04T08:39:30.645Z,9.50
2017-11-04T08:41:23.957Z,9.46
2017-11-04T08:42:24.085Z,9.48
2017-11-04T08:44:17.500Z,9.50
2017-11-04T08:45:17.409Z,9.58
2017-11-04T08:47:11.723Z,9.71
2017-11-04T08:48:12.213Z,9.70
2017-11-04T08:50:05.255Z,9.70
2017-11-04T08:51:13.952Z,9.81
2017-11-04T08:53:08.752Z,9.81
2017-11-04T08:54:01.545Z,9.89
2017-11-04T08:56:03.748Z,9.97
2017-11-04T08:56:54.186Z,10.01
2017-11-04T08:58:48.468Z,10.15
2017-11-04T08:59:57.118Z,10.22
2017-11-04T09:01:43.915Z,10.28
2017-11-04T09:02:43.858Z,10.22
2017-11-04T09:04:37.249Z,10.22
2017-11-04T09:05:37.289Z,10.34
2017-11-04T09:07:30.651Z,10.36
2017-11-04T09:08:30.663Z,10.52
2017-11-04T09:10:23.994Z,10.40
2017-11-04T09:11:24.031Z,10.47
2017-11-04T09:13:26.228Z,10.84
2017-11-04T09:14:26.183Z,11.20
2017-11-04T09:16:20.567Z,11.75
2017-11-04T09:17:19.543Z,11.87
2017-11-04T09:19:06.222Z,12.21
2017-11-04T09:20:14.941Z,12.24
2017-11-04T09:21:59.738Z,11.97
2017-11-04T09:23:08.245Z,12.05
2017-11-04T09:24:53.012Z,12.16
2017-11-04T09:25:53.008Z,12.27
2017-11-04T09:27:46.478Z,12.31
2017-11-04T09:28:46.477Z,12.05
2017-11-04T09:30:39.817Z,12.04
2017-11-04T09:31:39.885Z,12.01
2017-11-04T09:33:33.297Z,11.97
2017-11-04T09:34:33.304Z,12.01
2017-11-04T09:36:26.702Z,12.05
2017-11-04T09:37:26.744Z,11.90
2017-11-04T09:39:20.135Z,12.04
2017-11-04T09:40:20.126Z,12.04
2017-11-04T09:42:13.508Z,12.02
2017-11-04T09:43:13.524Z,12.05
2017-11-04T09:45:06.920Z,12.13
2017-11-04T09:46:06.874Z,12.39
2017-11-04T09:48:00.290Z,12.75
2017-11-04T09:49:00.301Z,12.54
2017-11-04T09:50:53.704Z,12.97
2017-11-04T09:51:53.680Z,13.03
2017-11-04T09:53:47.088Z,13.43
2017-11-04T09:54:47.153Z,13.56
2017-11-04T09:56:40.485Z,13.30
2017-11-04T09:57:40.512Z,13.37
2017-11-04T09:59:33.874Z,13.59
2017-11-04T10:00:33.913Z,13.58
2017-11-04T10:02:28.289Z,13.77
2017-11-04T10:03:28.295Z,13.91
2017-11-04T10:05:21.731Z,14.14
2017-11-04T10:06:21.742Z,14.43
2017-11-04T10:08:15.115Z,14.47
2017-11-04T10:09:15.126Z,14.44
2017-11-04T10:11:08.497Z,14.60
2017-11-04T10:12:16.113Z,14.56
2017-11-04T10:14:01.880Z,14.53
2017-11-04T10:15:01.952Z,14.74
2017-11-04T10:16:55.267Z,14.83
2017-11-04T10:17:55.291Z,14.72
2017-11-04T10:19:48.694Z,15.15
2017-11-04T10:20:48.709Z,15.30
2017-11-04T10:22:42.139Z,15.76
2017-11-04T10:23:42.157Z,15.81
2017-11-04T10:25:35.517Z,16.67
2017-11-04T10:26:35.516Z,16.85
2017-11-04T10:28:28.916Z,16.68
2017-11-04T10:29:28.972Z,16.70
2017-11-04T10:31:22.346Z,16.27
2017-11-04T10:32:22.311Z,16.25
2017-11-04T10:34:15.735Z,17.48
2017-11-04T10:35:15.791Z,18.18
2017-11-04T10:37:09.112Z,19.51
2017-11-04T10:38:09.143Z,19.75
2017-11-04T10:40:02.525Z,19.13
2017-11-04T10:41:02.538Z,19.66
2017-11-04T10:42:56.007Z,20.31
2017-11-04T10:43:56.009Z,19.93
2017-11-04T10:45:49.349Z,20.39
2017-11-04T10:46:49.386Z,20.33
2017-11-04T10:48:42.822Z,20.34
2017-11-04T10:49:42.832Z,21.35
2017-11-04T10:51:36.202Z,22.29
2017-11-04T10:52:36.240Z,22.13
2017-11-04T10:54:29.583Z,21.90
2017-11-04T10:55:29.610Z,22.28
2017-11-04T10:57:23.016Z,22.50
2017-11-04T10:58:23.025Z,22.60
2017-11-04T11:00:16.435Z,22.46
2017-11-04T11:01:16.436Z,22.56
2017-11-04T11:03:09.963Z,22.41
2017-11-04T11:04:09.861Z,22.50
2017-11-04T11:06:04.307Z,22.60
2017-11-04T11:07:04.439Z,22.68
2017-11-04T11:08:57.721Z,21.23
2017-11-04T11:09:57.762Z,20.61
2017-11-04T11:11:51.138Z,20.98
2017-11-04T11:12:51.156Z,20.47
2017-11-04T11:14:44.545Z,20.38
2017-11-04T11:15:44.588Z,21.02
2017-11-04T11:17:37.966Z,20.89
2017-11-04T11:18:37.992Z,20.83
2017-11-04T11:20:31.389Z,20.41
2017-11-04T11:21:31.414Z,20.77
2017-11-04T11:23:24.906Z,20.79
2017-11-04T11:24:24.829Z,21.20
2017-11-04T11:26:18.303Z,21.24
2017-11-04T11:27:18.307Z,20.86
2017-11-04T11:29:11.671Z,20.59
2017-11-04T11:30:11.686Z,20.23
2017-11-04T11:32:05.090Z,19.73
2017-11-04T11:33:05.089Z,19.60
2017-11-04T11:34:58.741Z,18.97
2017-11-04T11:35:58.522Z,18.99
2017-11-04T11:37:51.942Z,19.11
2017-11-04T11:38:51.931Z,19.18
2017-11-04T11:40:45.288Z,18.99
2017-11-04T11:41:45.313Z,18.95
2017-11-04T11:43:39.632Z,18.27
2017-11-04T11:44:38.737Z,18.28
2017-11-04T11:46:32.320Z,18.70
2017-11-04T11:47:32.207Z,18.31
2017-11-04T11:49:25.676Z,18.10
2017-11-04T11:50:25.616Z,17.84
2017-11-04T11:52:19.039Z,18.34
2017-11-04T11:53:19.053Z,17.92
2017-11-04T11:55:13.452Z,17.87
2017-11-04T11:56:21.146Z,17.81
2017-11-04T11:58:07.920Z,17.74
2017-11-04T11:59:07.945Z,18.00
2017-11-04T12:01:01.309Z,17.69
2017-11-04T12:02:01.359Z,17.91
2017-11-04T12:03:54.749Z,17.41
2017-11-04T12:04:54.712Z,17.41
2017-11-04T12:06:48.139Z,17.47
2017-11-04T12:07:48.147Z,17.17
2017-11-04T12:09:41.493Z,17.95
2017-11-04T12:10:41.533Z,18.21
2017-11-04T12:12:34.921Z,17.92
2017-11-04T12:13:34.902Z,17.79
2017-11-04T12:15:28.315Z,17.87
2017-11-04T12:16:28.346Z,17.67
2017-11-04T12:18:21.819Z,17.89
2017-11-04T12:19:29.442Z,17.88
2017-11-04T12:21:16.243Z,17.59
2017-11-04T12:22:16.249Z,17.44
2017-11-04T12:24:09.684Z,17.28
2017-11-04T12:25:09.660Z,17.36
2017-11-04T12:27:03.076Z,17.82
2017-11-04T12:28:03.033Z,17.97
2017-11-04T12:29:56.443Z,18.74
2017-11-04T12:30:56.483Z,18.83
2017-11-04T12:32:49.836Z,19.14
2017-11-04T12:33:49.862Z,19.29
2017-11-04T12:35:43.266Z,19.33
2017-11-04T12:36:43.345Z,19.73
2017-11-04T12:38:36.713Z,19.73
2017-11-04T12:39:36.730Z,19.88
2017-11-04T12:41:39.205Z,20.35
2017-11-04T12:42:30.147Z,20.23
2017-11-04T12:44:23.546Z,19.88
2017-11-04T12:45:31.113Z,19.69
2017-11-04T12:47:18.004Z,19.93
2017-11-04T12:48:25.519Z,20.09
2017-11-04T12:50:18.890Z,20.33
2017-11-04T12:51:11.395Z,20.69
2017-11-04T12:53:04.928Z,20.46
2017-11-04T12:54:13.253Z,20.24
2017-11-04T12:55:58.192Z,19.55
2017-11-04T12:56:58.125Z,19.55
2017-11-04T12:58:51.511Z,19.66
2017-11-04T12:59:51.521Z,19.76
2017-11-04T13:01:44.900Z,19.72
2017-11-04T13:02:44.908Z,19.88
2017-11-04T13:04:38.406Z,20.12
2017-11-04T13:05:38.344Z,20.47
2017-11-04T13:07:31.772Z,20.18
2017-11-04T13:08:31.799Z,19.94
2017-11-04T13:10:26.191Z,19.32
2017-11-04T13:11:26.176Z,18.94
2017-11-04T13:13:19.581Z,18.49
2017-11-04T13:14:19.626Z,18.52
2017-11-04T13:16:13.025Z,18.27
2017-11-04T13:17:13.106Z,18.09
2017-11-04T13:19:06.530Z,17.97
2017-11-04T13:20:14.167Z,18.04
2017-11-04T13:22:01.925Z,17.89
2017-11-04T13:23:10.476Z,17.82
2017-11-04T13:25:03.916Z,17.84
2017-11-04T13:25:56.367Z,17.85
2017-11-04T13:27:57.392Z,17.79
2017-11-04T13:28:57.305Z,17.84
2017-11-04T13:30:43.394Z,17.74
2017-11-04T13:31:50.900Z,17.55
2017-11-04T13:33:36.562Z,17.62
2017-11-04T13:34:36.580Z,17.59
2017-11-04T13:36:29.982Z,17.51
2017-11-04T13:37:30.013Z,17.51
2017-11-04T13:39:24.496Z,17.50
2017-11-04T13:40:24.347Z,17.47
2017-11-04T13:42:17.779Z,17.38
2017-11-04T13:43:17.797Z,17.44
2017-11-04T13:45:12.211Z,17.40
2017-11-04T13:46:19.893Z,17.43
2017-11-04T13:48:07.662Z,17.41
2017-11-04T13:49:07.648Z,17.40
2017-11-04T13:51:09.637Z,17.25
2017-11-04T13:52:09.673Z,17.29
2017-11-04T13:53:54.465Z,17.23
2017-11-04T13:54:54.461Z,17.25
2017-11-04T13:56:48.885Z,17.25
2017-11-04T13:57:48.900Z,17.23
2017-11-04T13:59:42.422Z,17.08
2017-11-04T14:00:42.648Z,17.20
2017-11-04T14:02:37.928Z,17.17
2017-11-04T14:03:46.579Z,17.15
2017-11-04T14:05:31.339Z,17.10
2017-11-04T14:06:31.477Z,17.10
2017-11-04T14:08:24.820Z,17.14
2017-11-04T14:09:32.419Z,17.04
2017-11-04T14:11:18.325Z,17.08
2017-11-04T14:12:18.360Z,17.03
2017-11-04T14:14:11.755Z,17.03
2017-11-04T14:15:19.352Z,16.99
2017-11-04T14:17:05.603Z,16.98
2017-11-04T14:18:14.248Z,16.89
2017-11-04T14:19:59.056Z,16.85
2017-11-04T14:20:59.004Z,16.90
2017-11-04T14:22:53.386Z,16.85
2017-11-04T14:23:53.415Z,16.88
2017-11-04T14:25:47.864Z,16.85
2017-11-04T14:26:47.855Z,16.81
2017-11-04T14:28:41.285Z,16.77
2017-11-04T14:29:49.931Z,16.75
2017-11-04T14:31:34.689Z,16.65
2017-11-04T14:32:34.705Z,16.53
2017-11-04T14:34:29.107Z,16.50
2017-11-04T14:35:29.088Z,16.52
2017-11-04T14:37:22.501Z,16.45
2017-11-04T14:38:30.108Z,16.42
2017-11-04T14:40:25.056Z,16.35
2017-11-04T14:41:15.917Z,16.41
2017-11-04T14:43:18.090Z,16.49
2017-11-04T14:44:10.397Z,16.42
2017-11-04T14:46:11.438Z,16.40
2017-11-04T14:47:03.779Z,16.44
2017-11-04T14:48:58.246Z,16.52
2017-11-04T14:49:58.199Z,16.55
2017-11-04T14:52:02.293Z,16.59
2017-11-04T14:54:23.682Z,16.68
2017-11-04T14:55:24.399Z,16.63
2017-11-04T14:57:17.704Z,16.65
2017-11-04T14:58:10.120Z,16.63
2017-11-04T15:00:03.454Z,16.58
2017-11-04T15:01:03.681Z,16.56
2017-11-04T15:02:57.910Z,16.45
2017-11-04T15:04:07.643Z,16.42
2017-11-04T15:06:01.975Z,16.25
2017-11-04T15:07:01.078Z,16.12
2017-11-04T15:08:55.470Z,16.07
2017-11-04T15:09:46.801Z,16.07
2017-11-04T15:11:48.406Z,15.96
2017-11-04T15:12:47.804Z,15.92
2017-11-04T15:14:43.340Z,15.76
2017-11-04T15:15:43.285Z,15.78
2017-11-04T15:17:36.806Z,15.72
2017-11-04T15:18:28.145Z,15.68
2017-11-04T15:20:22.505Z,15.51
2017-11-04T15:21:30.131Z,15.57
2017-11-04T15:23:15.828Z,15.51
2017-11-04T15:24:15.926Z,15.48
2017-11-04T15:26:16.917Z,15.41
2017-11-04T15:27:09.310Z,15.38
2017-11-04T15:29:02.741Z,15.41
2017-11-04T15:30:02.764Z,15.45
2017-11-04T15:31:57.262Z,15.36
2017-11-04T15:33:05.731Z,15.27
2017-11-04T15:34:50.584Z,15.39
2017-11-04T15:35:50.564Z,15.33
2017-11-04T15:37:44.564Z,15.39
2017-11-04T15:38:52.148Z,15.21
2017-11-04T15:40:37.953Z,15.20
2017-11-04T15:41:45.625Z,15.19
2017-11-04T15:43:32.383Z,15.11
2017-11-04T15:44:42.000Z,15.06
2017-11-04T15:46:25.857Z,14.95
2017-11-04T15:47:25.802Z,14.98
2017-11-04T15:49:19.161Z,14.74
2017-11-04T15:50:27.985Z,14.64
2017-11-04T15:52:22.214Z,14.60
2017-11-04T15:53:21.230Z,14.46
2017-11-04T15:55:07.061Z,14.35
2017-11-04T15:56:15.706Z,14.42
2017-11-04T15:58:00.627Z,14.28
2017-11-04T15:59:00.611Z,14.12
2017-11-04T16:00:54.700Z,13.99
2017-11-04T16:01:53.663Z,13.76
2017-11-04T16:03:48.194Z,13.56
2017-11-04T16:04:48.064Z,13.49
2017-11-04T16:06:41.464Z,13.25
2017-11-04T16:07:51.177Z,13.27
2017-11-04T16:09:35.876Z,13.20
2017-11-04T16:10:43.438Z,13.17
2017-11-04T16:12:39.351Z,13.25
2017-11-04T16:13:30.322Z,13.21
2017-11-04T16:15:23.737Z,13.09
2017-11-04T16:16:23.814Z,12.95
2017-11-04T16:18:19.166Z,12.70
2017-11-04T16:19:19.133Z,12.56
2017-11-04T16:21:12.493Z,12.60
2017-11-04T16:22:12.524Z,12.46
2017-11-04T16:24:06.924Z,12.33
2017-11-04T16:25:06.959Z,12.39
2017-11-04T16:27:01.397Z,12.11
2017-11-04T16:28:01.371Z,12.05
2017-11-04T16:29:54.813Z,11.96
2017-11-04T16:30:54.759Z,11.86
2017-11-04T16:32:49.242Z,11.68
2017-11-04T16:33:49.249Z,11.74
2017-11-04T16:35:43.154Z,11.67
2017-11-04T16:36:43.203Z,11.65
2017-11-04T16:38:37.534Z,11.72
2017-11-04T16:39:37.602Z,11.67
2017-11-04T16:41:30.599Z,11.75
2017-11-04T16:42:30.712Z,11.78
2017-11-04T16:44:25.939Z,11.78
2017-11-04T16:45:25.981Z,11.90
2017-11-04T16:47:19.383Z,11.86
2017-11-04T16:48:19.372Z,11.97
2017-11-04T16:50:13.755Z,12.08
2017-11-04T16:51:13.800Z,12.04
2017-11-04T16:53:08.218Z,12.01
2017-11-04T16:54:08.193Z,12.08
2017-11-04T16:56:02.529Z,11.97
2017-11-04T16:57:02.600Z,11.93
2017-11-04T16:58:56.982Z,11.75
2017-11-04T16:59:56.971Z,11.64
2017-11-04T17:01:50.615Z,11.50
2017-11-04T17:02:50.382Z,11.39
2017-11-04T17:04:44.889Z,11.39
2017-11-04T17:05:44.766Z,11.31
2017-11-04T17:07:38.222Z,11.38
2017-11-04T17:08:38.218Z,11.43
2017-11-04T17:10:31.611Z,11.46
2017-11-04T17:11:31.630Z,11.50
2017-11-04T17:13:25.048Z,11.50
2017-11-04T17:14:25.092Z,11.46
2017-11-04T17:16:19.416Z,11.47
2017-11-04T17:17:19.446Z,11.44
2017-11-04T17:19:12.864Z,11.35
2017-11-04T17:20:12.833Z,11.34
2017-11-04T17:22:06.225Z,11.19
2017-11-04T17:23:06.292Z,11.25
2017-11-04T17:24:59.884Z,11.35
2017-11-04T17:25:59.804Z,11.36
2017-11-04T17:27:53.251Z,11.38
2017-11-04T17:28:53.252Z,11.46
2017-11-04T17:30:47.663Z,11.41
2017-11-04T17:31:47.618Z,11.46
2017-11-04T17:33:41.321Z,11.31
2017-11-04T17:34:41.259Z,11.31
2017-11-04T17:36:34.793Z,11.29
2017-11-04T17:37:34.865Z,11.24
2017-11-04T17:39:35.808Z,11.29
2017-11-04T17:40:28.152Z,11.35
2017-11-04T17:42:24.593Z,11.36
2017-11-04T17:43:24.474Z,11.36
2017-11-04T17:45:17.960Z,11.46
2017-11-04T17:46:17.877Z,11.36
2017-11-04T17:48:11.580Z,11.41
2017-11-04T17:49:11.526Z,11.44
2017-11-04T17:51:05.114Z,11.36
2017-11-04T17:52:04.921Z,11.29
2017-11-04T17:53:58.310Z,11.32
2017-11-04T17:54:58.360Z,11.29
2017-11-04T17:56:51.777Z,11.21
2017-11-04T17:57:51.868Z,11.14
2017-11-04T17:59:45.181Z,11.09
2017-11-04T18:00:45.236Z,11.06
2017-11-04T18:02:39.754Z,11.07
2017-11-04T18:03:39.700Z,11.11
2017-11-04T18:05:34.093Z,11.24
2017-11-04T18:06:33.981Z,11.34
2017-11-04T18:08:28.538Z,11.39
2017-11-04T18:09:28.501Z,11.32
2017-11-04T18:11:22.919Z,11.24
2017-11-04T18:12:22.939Z,11.29
2017-11-04T18:14:17.385Z,11.20
2017-11-04T18:15:17.331Z,11.19
2017-11-04T18:17:11.715Z,11.19
2017-11-04T18:18:11.746Z,11.21
2017-11-04T18:20:06.146Z,11.29
2017-11-04T18:21:06.219Z,11.32
2017-11-04T18:23:00.612Z,11.36
2017-11-04T18:24:00.635Z,11.31
2017-11-04T18:25:56.023Z,11.27
2017-11-04T18:26:56.103Z,11.19
2017-11-04T18:28:49.477Z,11.21
2017-11-04T18:29:49.396Z,11.28
2017-11-04T18:31:43.833Z,11.21
2017-11-04T18:32:43.843Z,11.27
2017-11-04T18:34:37.326Z,11.38
2017-11-04T18:35:37.197Z,11.38
2017-11-04T18:37:30.687Z,11.49
2017-11-04T18:38:30.605Z,11.49
2017-11-04T18:40:24.038Z,11.46
2017-11-04T18:41:24.168Z,11.44
2017-11-04T18:43:17.503Z,11.43
2017-11-04T18:44:17.485Z,11.43
2017-11-04T18:46:10.866Z,11.38
2017-11-04T18:47:10.884Z,11.34
2017-11-04T18:49:05.313Z,11.38
2017-11-04T18:50:05.273Z,11.36
2017-11-04T18:51:58.641Z,11.32
2017-11-04T18:52:58.673Z,11.35
2017-11-04T18:54:51.755Z,11.44
2017-11-04T18:55:51.685Z,11.44
2017-11-04T18:57:46.236Z,11.44